Time;durP1;ratioP1;P1;durP2;ratioP2;P2;SDS_P1;SDS_P2;PMS_P1;PMS_P2;Temp;Humidity;BMP_temperature;BMP_pressure;BME280_temperature;BME280_humidity;BME280_pressure;Samples;Min_cycle;Max_cycle;Signal;HPM_P1;HPM_P2
2021/11/18 00:01:08;;;;;;;7.10;1.63;;;;;;;;;;5063473;28;20033;-79
2021/11/18 00:03:33;;;;;;;6.07;1.30;;;;;;;;;;5045607;28;20052;-79
2021/11/18 00:05:58;;;;;;;5.80;1.17;;;;;;;;;;5064003;28;20105;-80
2021/11/18 00:08:26;;;;;;;10.65;1.48;;;;;;;;;;5045391;28;20036;-79
2021/11/18 00:10:53;;;;;;;7.60;1.38;;;;;;;;;;5063073;28;20049;-81
2021/11/18 00:13:27;;;;;;;7.75;1.17;;;;;;;;;;5061912;28;20033;-78
2021/11/18 00:15:54;;;;;;;10.18;1.60;;;;;;;;;;5063728;28;20095;-80
2021/11/18 00:18:23;;;;;;;8.70;1.88;;;;;;;;;;5063293;28;20036;-79
2021/11/18 00:20:58;;;;;;;8.73;1.40;;;;;;;;;;5063167;28;20063;-82
2021/11/18 00:23:26;;;;;;;11.48;1.60;;;;;;;;;;5045551;28;20064;-80
2021/11/18 00:25:52;;;;;;;7.68;1.50;;;;;;;;;;5062982;28;20029;-81
2021/11/18 00:28:17;;;;;;;7.55;1.30;;;;;;;;;;5044855;28;20040;-79
2021/11/18 00:30:43;;;;;;;8.20;1.60;;;;;;;;;;5045570;28;20032;-77
2021/11/18 00:33:09;;;;;;;11.35;1.35;;;;;;;;;;5063075;28;20035;-79
2021/11/18 00:35:36;;;;;;;6.32;1.50;;;;;;;;;;5063274;28;20040;-81
2021/11/18 00:38:02;;;;;;;5.45;1.20;;;;;;;;;;5044825;28;20035;-80
2021/11/18 00:40:34;;;;;;;13.82;1.52;;;;;;;;;;5063331;28;20120;-80
2021/11/18 00:43:01;;;;;;;8.63;1.65;;;;;;;;;;5044438;28;20082;-79
2021/11/18 00:45:27;;;;;;;9.10;1.50;;;;;;;;;;5044339;28;20044;-80
2021/11/18 00:47:54;;;;;;;8.85;1.50;;;;;;;;;;5063426;28;20033;-81
2021/11/18 00:50:24;;;;;;;3.72;1.30;;;;;;;;;;5063137;28;20029;-81
2021/11/18 00:52:50;;;;;;;8.80;1.48;;;;;;;;;;5062453;28;20029;-80
2021/11/18 00:55:16;;;;;;;7.55;1.38;;;;;;;;;;5062428;28;20059;-80
2021/11/18 00:57:42;;;;;;;9.25;1.10;;;;;;;;;;5062714;28;20080;-81
2021/11/18 01:00:10;;;;;;;9.63;1.70;;;;;;;;;;5065545;28;20466;-80
2021/11/18 01:02:36;;;;;;;4.72;0.98;;;;;;;;;;5069094;28;20064;-80
2021/11/18 01:05:02;;;;;;;9.00;1.40;;;;;;;;;;5069192;28;20083;-81
2021/11/18 01:07:27;;;;;;;7.03;1.30;;;;;;;;;;5051255;28;20060;-80
2021/11/18 01:09:53;;;;;;;7.03;1.20;;;;;;;;;;5069160;28;20036;-84
2021/11/18 01:12:18;;;;;;;7.22;1.00;;;;;;;;;;5051552;28;20038;-81
2021/11/18 01:14:44;;;;;;;12.57;1.83;;;;;;;;;;5067645;28;20036;-81
2021/11/18 01:17:09;;;;;;;10.55;1.67;;;;;;;;;;5068683;28;20032;-81
2021/11/18 01:19:35;;;;;;;8.15;1.60;;;;;;;;;;5051123;28;20041;-83
2021/11/18 01:22:03;;;;;;;6.88;1.35;;;;;;;;;;5069450;28;20051;-81
2021/11/18 01:24:29;;;;;;;8.90;1.20;;;;;;;;;;5051014;28;20033;-82
2021/11/18 01:26:55;;;;;;;6.57;1.63;;;;;;;;;;5069183;28;20090;-80
2021/11/18 01:29:20;;;;;;;14.80;1.25;;;;;;;;;;5066914;28;20036;-81
2021/11/18 01:31:46;;;;;;;8.55;1.70;;;;;;;;;;5069437;28;20064;-82
2021/11/18 01:34:11;;;;;;;8.80;1.40;;;;;;;;;;5066923;28;20400;-81
2021/11/18 01:36:36;;;;;;;8.55;1.38;;;;;;;;;;5069210;28;20037;-80
2021/11/18 01:39:05;;;;;;;9.55;1.50;;;;;;;;;;5051053;28;20029;-81
2021/11/18 01:41:31;;;;;;;12.00;1.13;;;;;;;;;;5068925;28;20041;-81
2021/11/18 01:44:00;;;;;;;7.80;1.15;;;;;;;;;;5068620;28;20094;-81
2021/11/18 01:46:34;;;;;;;9.88;1.80;;;;;;;;;;5051136;28;20094;-81
2021/11/18 01:49:01;;;;;;;8.43;1.33;;;;;;;;;;5069259;28;20453;-80
2021/11/18 01:51:32;;;;;;;12.15;1.60;;;;;;;;;;5069095;28;20156;-82
2021/11/18 01:53:59;;;;;;;6.50;1.38;;;;;;;;;;5069010;28;20025;-80
2021/11/18 01:56:29;;;;;;;10.20;2.33;;;;;;;;;;5069070;28;20135;-80
2021/11/18 01:59:05;;;;;;;8.30;1.50;;;;;;;;;;5068998;28;20036;-80
2021/11/18 02:01:31;;;;;;;9.95;1.40;;;;;;;;;;5051070;28;20044;-83
2021/11/18 02:03:56;;;;;;;9.57;1.40;;;;;;;;;;5050646;28;20029;-82
2021/11/18 02:06:28;;;;;;;3.25;1.10;;;;;;;;;;5069107;28;20021;-81
2021/11/18 02:08:54;;;;;;;13.27;1.38;;;;;;;;;;5050793;28;20087;-82
2021/11/18 02:11:32;;;;;;;13.02;1.33;;;;;;;;;;5067025;28;20032;-82
2021/11/18 02:13:58;;;;;;;8.70;1.15;;;;;;;;;;5065458;28;20032;-79
2021/11/18 02:16:25;;;;;;;11.88;1.40;;;;;;;;;;5065610;28;20029;-83
2021/11/18 02:18:50;;;;;;;9.30;1.63;;;;;;;;;;5047394;28;20040;-82
2021/11/18 02:21:17;;;;;;;8.00;1.10;;;;;;;;;;5047537;28;20029;-81
2021/11/18 02:23:47;;;;;;;3.03;0.70;;;;;;;;;;5047383;28;20029;-82
2021/11/18 02:26:13;;;;;;;8.52;1.75;;;;;;;;;;5047702;28;20041;-84
2021/11/18 02:28:42;;;;;;;10.70;1.25;;;;;;;;;;5065647;28;20055;-82
2021/11/18 02:31:25;;;;;;;7.40;1.15;;;;;;;;;;5047656;28;20086;-81
2021/11/18 02:33:51;;;;;;;7.53;1.42;;;;;;;;;;5064802;28;20498;-82
2021/11/18 02:36:17;;;;;;;10.25;1.35;;;;;;;;;;5047279;28;20029;-79
2021/11/18 02:38:43;;;;;;;9.25;0.90;;;;;;;;;;5064907;28;20074;-81
2021/11/18 02:41:12;;;;;;;6.78;1.10;;;;;;;;;;5047003;28;20057;-81
2021/11/18 02:43:38;;;;;;;8.73;1.30;;;;;;;;;;5046628;28;20029;-82
2021/11/18 02:46:03;;;;;;;5.65;1.02;;;;;;;;;;5065071;28;20071;-81
2021/11/18 02:48:29;;;;;;;10.18;1.20;;;;;;;;;;5064943;28;20084;-80
2021/11/18 02:50:57;;;;;;;5.53;1.10;;;;;;;;;;5046973;28;20477;-84
2021/11/18 02:53:24;;;;;;;11.23;1.70;;;;;;;;;;5064632;28;20029;-83
2021/11/18 02:55:51;;;;;;;10.65;1.10;;;;;;;;;;5046928;28;20036;-82
2021/11/18 02:58:17;;;;;;;4.57;1.08;;;;;;;;;;5064511;28;20045;-84
2021/11/18 03:00:51;;;;;;;9.55;1.40;;;;;;;;;;5065033;28;20061;-82
2021/11/18 03:03:17;;;;;;;5.22;0.98;;;;;;;;;;5046637;28;20032;-82
2021/11/18 03:05:44;;;;;;;5.72;1.10;;;;;;;;;;5046907;28;20029;-82
2021/11/18 03:08:10;;;;;;;5.00;0.90;;;;;;;;;;5046813;28;20039;-81
2021/11/18 03:10:36;;;;;;;5.53;0.90;;;;;;;;;;5046774;28;20028;-83
2021/11/18 03:13:03;;;;;;;9.63;1.30;;;;;;;;;;5046582;28;20032;-81
2021/11/18 03:15:29;;;;;;;3.30;0.73;;;;;;;;;;5064445;28;20029;-82
2021/11/18 03:17:55;;;;;;;17.80;1.33;;;;;;;;;;5064343;28;20033;-81
2021/11/18 03:20:22;;;;;;;13.05;1.25;;;;;;;;;;5046788;28;20473;-81
2021/11/18 03:22:48;;;;;;;6.70;0.88;;;;;;;;;;5045777;28;20025;-80
2021/11/18 03:25:17;;;;;;;10.07;1.33;;;;;;;;;;5064118;28;20036;-82
2021/11/18 03:27:43;;;;;;;20.50;1.75;;;;;;;;;;5064057;28;20024;-80
2021/11/18 03:30:11;;;;;;;4.38;1.00;;;;;;;;;;5046338;28;20062;-80
2021/11/18 03:32:37;;;;;;;9.50;1.58;;;;;;;;;;5064133;28;20505;-79
2021/11/18 03:35:05;;;;;;;10.55;1.20;;;;;;;;;;5046558;28;20089;-82
2021/11/18 03:37:30;;;;;;;6.20;0.98;;;;;;;;;;5045951;28;20545;-82
2021/11/18 03:39:55;;;;;;;6.43;1.50;;;;;;;;;;5064266;28;20029;-81
2021/11/18 03:42:21;;;;;;;6.93;0.90;;;;;;;;;;5046217;28;20075;-82
2021/11/18 03:44:47;;;;;;;7.10;1.08;;;;;;;;;;5045772;28;20033;-82
2021/11/18 03:47:14;;;;;;;4.85;0.90;;;;;;;;;;5045908;28;20025;-80
2021/11/18 03:49:40;;;;;;;8.32;1.40;;;;;;;;;;5064225;28;20040;-79
2021/11/18 03:52:09;;;;;;;10.23;1.00;;;;;;;;;;5063710;28;20077;-82
2021/11/18 03:54:38;;;;;;;9.52;1.10;;;;;;;;;;5045702;28;20032;-80
2021/11/18 03:57:05;;;;;;;6.32;1.13;;;;;;;;;;5044298;28;20365;-81
2021/11/18 03:59:34;;;;;;;7.47;1.08;;;;;;;;;;5063600;28;20037;-80
2021/11/18 04:02:00;;;;;;;9.93;0.90;;;;;;;;;;5063868;28;20495;-79
2021/11/18 04:04:34;;;;;;;4.55;0.82;;;;;;;;;;5063319;28;20059;-80
2021/11/18 04:07:00;;;;;;;5.88;0.95;;;;;;;;;;5045821;28;20041;-79
2021/11/18 04:09:26;;;;;;;8.25;1.38;;;;;;;;;;5045675;28;20033;-79
2021/11/18 04:11:55;;;;;;;8.32;0.90;;;;;;;;;;5045691;28;20043;-82
2021/11/18 04:14:21;;;;;;;5.55;1.15;;;;;;;;;;5045271;28;20447;-81
2021/11/18 04:16:47;;;;;;;5.65;0.90;;;;;;;;;;5045540;28;20036;-77
2021/11/18 04:19:14;;;;;;;5.90;1.58;;;;;;;;;;5045529;28;20029;-80
2021/11/18 04:21:41;;;;;;;10.32;1.15;;;;;;;;;;5045535;28;20056;-79
2021/11/18 04:24:09;;;;;;;6.82;1.38;;;;;;;;;;5045120;28;20029;-79
2021/11/18 04:26:35;;;;;;;7.03;0.90;;;;;;;;;;5045563;28;20036;-78
2021/11/18 04:29:01;;;;;;;8.02;1.23;;;;;;;;;;5063101;28;20025;-80
2021/11/18 04:31:30;;;;;;;6.82;1.15;;;;;;;;;;5045137;28;20033;-80
2021/11/18 04:33:56;;;;;;;7.57;0.82;;;;;;;;;;5062745;28;20021;-81
2021/11/18 04:36:23;;;;;;;9.85;1.15;;;;;;;;;;5062823;28;20106;-81
2021/11/18 04:38:52;;;;;;;7.72;1.20;;;;;;;;;;5044973;28;20028;-79
2021/11/18 04:41:19;;;;;;;12.23;2.25;;;;;;;;;;5045380;28;20352;-80
2021/11/18 04:43:46;;;;;;;6.35;1.00;;;;;;;;;;5044922;28;20032;-81
2021/11/18 04:46:13;;;;;;;10.32;1.30;;;;;;;;;;5045050;28;20059;-79
2021/11/18 04:48:40;;;;;;;6.90;0.77;;;;;;;;;;5062887;28;20017;-82
2021/11/18 04:51:07;;;;;;;12.80;2.22;;;;;;;;;;5063173;28;20029;-81
2021/11/18 04:53:33;;;;;;;5.53;1.13;;;;;;;;;;5062510;28;20025;-81
2021/11/18 04:55:59;;;;;;;6.72;0.90;;;;;;;;;;5045061;28;20032;-79
2021/11/18 04:58:25;;;;;;;4.93;1.08;;;;;;;;;;5044044;28;20056;-80
2021/11/18 05:00:54;;;;;;;7.55;0.88;;;;;;;;;;5061172;28;20037;-80
2021/11/18 05:03:22;;;;;;;9.57;1.50;;;;;;;;;;5044477;28;20136;-82
2021/11/18 05:05:48;;;;;;;5.38;1.45;;;;;;;;;;5044841;28;20036;-83
2021/11/18 05:08:14;;;;;;;6.85;0.90;;;;;;;;;;5062523;28;20036;-81
2021/11/18 05:10:42;;;;;;;7.20;1.50;;;;;;;;;;5044954;28;20036;-80
2021/11/18 05:13:08;;;;;;;8.43;1.27;;;;;;;;;;5062594;28;20485;-79
2021/11/18 05:15:36;;;;;;;6.50;1.50;;;;;;;;;;5044513;28;20021;-78
2021/11/18 05:18:03;;;;;;;3.47;0.90;;;;;;;;;;5044286;28;20033;-81
2021/11/18 05:20:29;;;;;;;6.72;1.17;;;;;;;;;;5044661;28;20028;-77
2021/11/18 05:22:56;;;;;;;8.65;1.50;;;;;;;;;;5062717;28;20373;-79
2021/11/18 05:25:25;;;;;;;7.95;0.95;;;;;;;;;;5062981;28;20102;-78
2021/11/18 05:27:51;;;;;;;6.55;1.10;;;;;;;;;;5044202;28;20040;-77
2021/11/18 05:30:17;;;;;;;8.63;1.10;;;;;;;;;;5044717;28;20559;-79
2021/11/18 05:32:44;;;;;;;5.35;0.65;;;;;;;;;;5062404;28;20032;-80
2021/11/18 05:35:11;;;;;;;6.03;0.90;;;;;;;;;;5062696;28;20047;-82
2021/11/18 05:37:36;;;;;;;7.53;1.20;;;;;;;;;;5044236;28;20052;-77
2021/11/18 05:40:04;;;;;;;4.28;0.65;;;;;;;;;;5062190;28;20470;-76
2021/11/18 05:42:29;;;;;;;4.82;0.73;;;;;;;;;;5062169;28;20112;-81
2021/11/18 05:44:55;;;;;;;5.22;0.82;;;;;;;;;;5062707;28;20033;-79
2021/11/18 05:47:21;;;;;;;9.05;1.05;;;;;;;;;;5064208;28;20456;-77
2021/11/18 05:49:47;;;;;;;9.43;1.05;;;;;;;;;;5065950;28;20040;-78
2021/11/18 05:52:13;;;;;;;5.80;1.45;;;;;;;;;;5066024;28;20043;-76
2021/11/18 05:54:39;;;;;;;9.82;1.13;;;;;;;;;;5048165;28;20044;-79
2021/11/18 05:57:05;;;;;;;9.38;1.42;;;;;;;;;;5047677;28;20124;-81
2021/11/18 05:59:30;;;;;;;10.98;1.25;;;;;;;;;;5047455;28;20044;-78
2021/11/18 06:01:56;;;;;;;4.60;0.98;;;;;;;;;;5066100;28;20028;-79
2021/11/18 06:04:22;;;;;;;4.35;0.90;;;;;;;;;;5065623;28;20033;-80
2021/11/18 06:06:47;;;;;;;5.28;0.95;;;;;;;;;;5065851;28;20021;-80
2021/11/18 06:09:13;;;;;;;9.50;1.02;;;;;;;;;;5047434;28;20031;-78
2021/11/18 06:11:40;;;;;;;10.57;1.10;;;;;;;;;;5065826;28;20036;-80
2021/11/18 06:14:06;;;;;;;3.65;0.82;;;;;;;;;;5047663;28;20056;-76
2021/11/18 06:16:32;;;;;;;5.43;1.10;;;;;;;;;;5065653;28;20344;-75
2021/11/18 06:19:01;;;;;;;9.07;1.23;;;;;;;;;;5065640;28;20032;-82
2021/11/18 06:21:26;;;;;;;6.32;1.00;;;;;;;;;;5047671;28;20045;-78
2021/11/18 06:23:52;;;;;;;4.50;1.17;;;;;;;;;;5065375;28;20033;-79
2021/11/18 06:26:18;;;;;;;8.13;0.82;;;;;;;;;;5065612;28;20036;-79
2021/11/18 06:28:43;;;;;;;8.73;1.08;;;;;;;;;;5065227;28;20029;-80
2021/11/18 06:31:11;;;;;;;5.97;0.63;;;;;;;;;;5065493;28;20052;-80
2021/11/18 06:33:36;;;;;;;6.38;1.33;;;;;;;;;;5065106;28;20120;-80
2021/11/18 06:36:03;;;;;;;7.95;1.52;;;;;;;;;;5065402;28;20358;-78
2021/11/18 06:38:29;;;;;;;7.07;1.17;;;;;;;;;;5065016;28;20032;-78
2021/11/18 06:40:55;;;;;;;7.57;1.45;;;;;;;;;;5064968;28;20053;-80
2021/11/18 06:43:22;;;;;;;5.45;1.25;;;;;;;;;;5065195;28;20507;-76
2021/11/18 06:45:49;;;;;;;5.28;0.93;;;;;;;;;;5047147;28;20032;-77
2021/11/18 06:48:17;;;;;;;14.77;1.33;;;;;;;;;;5047133;28;20102;-77
2021/11/18 06:50:44;;;;;;;8.15;1.30;;;;;;;;;;5064981;28;20024;-77
2021/11/18 06:53:11;;;;;;;4.30;0.90;;;;;;;;;;5065072;28;20469;-78
2021/11/18 06:55:37;;;;;;;6.68;1.00;;;;;;;;;;5064990;28;20032;-80
2021/11/18 06:58:02;;;;;;;7.43;1.20;;;;;;;;;;5064506;28;20053;-78
2021/11/18 07:00:28;;;;;;;6.72;1.35;;;;;;;;;;5065212;28;20046;-78
2021/11/18 07:02:53;;;;;;;6.60;1.67;;;;;;;;;;5046866;28;20040;-79
2021/11/18 07:05:19;;;;;;;8.48;1.00;;;;;;;;;;5065026;28;20443;-80
2021/11/18 07:07:44;;;;;;;7.97;1.00;;;;;;;;;;5046755;28;20133;-78
2021/11/18 07:10:11;;;;;;;10.23;1.33;;;;;;;;;;5063906;28;20040;-78
2021/11/18 07:12:37;;;;;;;4.10;0.82;;;;;;;;;;5064042;28;20316;-78
2021/11/18 07:15:06;;;;;;;9.30;1.27;;;;;;;;;;5064980;28;20118;-82
2021/11/18 07:17:32;;;;;;;5.80;0.93;;;;;;;;;;5046460;28;20037;-79
2021/11/18 07:19:58;;;;;;;6.05;1.38;;;;;;;;;;5064956;28;20036;-78
2021/11/18 07:22:23;;;;;;;5.70;1.10;;;;;;;;;;5064497;28;20033;-80
2021/11/18 07:24:51;;;;;;;10.18;1.63;;;;;;;;;;5064841;28;20036;-80
2021/11/18 07:27:16;;;;;;;2.80;0.80;;;;;;;;;;5046438;28;20025;-76
2021/11/18 07:29:42;;;;;;;6.40;1.20;;;;;;;;;;5046156;28;20029;-79
2021/11/18 07:32:07;;;;;;;6.05;1.25;;;;;;;;;;5046241;28;20021;-80
2021/11/18 07:34:32;;;;;;;3.22;0.82;;;;;;;;;;5046691;28;20037;-81
2021/11/18 07:36:58;;;;;;;10.18;1.38;;;;;;;;;;5046306;28;20109;-75
2021/11/18 07:39:26;;;;;;;9.20;1.40;;;;;;;;;;5046775;28;20025;-79
2021/11/18 07:41:53;;;;;;;5.75;1.10;;;;;;;;;;5046220;28;20020;-79
2021/11/18 07:44:22;;;;;;;4.72;1.10;;;;;;;;;;5044414;28;20021;-80
2021/11/18 07:46:47;;;;;;;5.90;1.30;;;;;;;;;;5045780;28;20033;-78
2021/11/18 07:49:14;;;;;;;7.03;1.00;;;;;;;;;;5063499;28;20085;-78
2021/11/18 07:51:40;;;;;;;6.35;1.17;;;;;;;;;;5045202;28;20029;-81
2021/11/18 07:54:07;;;;;;;9.45;1.23;;;;;;;;;;5045557;28;20029;-76
2021/11/18 07:56:33;;;;;;;10.68;1.40;;;;;;;;;;5063558;28;20407;-78
2021/11/18 07:59:02;;;;;;;6.57;1.10;;;;;;;;;;5063996;28;20032;-80
2021/11/18 08:01:27;;;;;;;4.18;1.38;;;;;;;;;;5064114;28;20504;-85
2021/11/18 08:03:53;;;;;;;5.60;0.90;;;;;;;;;;5064014;28;20020;-79
2021/11/18 08:06:24;;;;;;;7.60;1.40;;;;;;;;;;5063901;28;20033;-81
2021/11/18 08:08:54;;;;;;;6.00;1.10;;;;;;;;;;5063515;28;20029;-78
2021/11/18 08:11:27;;;;;;;7.00;1.27;;;;;;;;;;5045857;28;20055;-82
2021/11/18 08:13:53;;;;;;;6.15;1.48;;;;;;;;;;5062553;28;20021;-77
2021/11/18 08:16:22;;;;;;;3.05;0.90;;;;;;;;;;5063928;28;20043;-80
2021/11/18 08:18:51;;;;;;;4.43;0.90;;;;;;;;;;5045332;28;20033;-79
2021/11/18 08:21:17;;;;;;;13.45;2.03;;;;;;;;;;5045602;28;20097;-82
2021/11/18 08:23:46;;;;;;;7.32;1.20;;;;;;;;;;5045315;28;20044;-82
2021/11/18 08:26:18;;;;;;;6.22;0.90;;;;;;;;;;5063578;28;20059;-80
2021/11/18 08:28:44;;;;;;;5.72;1.10;;;;;;;;;;5063148;28;20112;-85
2021/11/18 08:31:12;;;;;;;5.82;1.00;;;;;;;;;;5062588;28;20060;-80
2021/11/18 08:33:42;;;;;;;7.75;1.23;;;;;;;;;;5044164;28;20044;-82
2021/11/18 08:36:07;;;;;;;7.55;1.40;;;;;;;;;;5045378;28;20036;-79
2021/11/18 08:38:33;;;;;;;5.57;1.05;;;;;;;;;;5062909;28;20063;-81
2021/11/18 08:41:06;;;;;;;6.93;1.10;;;;;;;;;;5063192;28;20418;-78
2021/11/18 08:43:35;;;;;;;3.70;1.00;;;;;;;;;;5045411;28;20033;-78
2021/11/18 08:46:12;;;;;;;8.25;1.20;;;;;;;;;;5063272;28;20037;-83
2021/11/18 08:48:38;;;;;;;6.43;0.70;;;;;;;;;;5063566;28;20029;-81
2021/11/18 08:51:05;;;;;;;5.80;1.27;;;;;;;;;;5045955;28;20119;-82
2021/11/18 08:53:33;;;;;;;8.85;1.55;;;;;;;;;;5063289;28;20059;-79
2021/11/18 08:56:03;;;;;;;4.65;0.85;;;;;;;;;;5045355;28;20056;-81
2021/11/18 08:58:32;;;;;;;7.03;1.25;;;;;;;;;;5045278;28;20060;-81
2021/11/18 09:01:04;;;;;;;5.90;1.20;;;;;;;;;;5063095;28;20093;-84
2021/11/18 09:03:33;;;;;;;6.00;1.38;;;;;;;;;;5045252;28;20153;-78
2021/11/18 09:06:04;;;;;;;10.43;1.60;;;;;;;;;;5045100;28;20036;-81
2021/11/18 09:08:32;;;;;;;5.05;1.00;;;;;;;;;;5045185;28;20152;-78
2021/11/18 09:10:58;;;;;;;6.03;1.10;;;;;;;;;;5063597;28;20056;-79
2021/11/18 09:13:23;;;;;;;2.92;0.70;;;;;;;;;;5045196;28;20668;-78
2021/11/18 09:15:50;;;;;;;4.65;1.00;;;;;;;;;;5045405;28;20043;-79
2021/11/18 09:18:16;;;;;;;5.32;0.95;;;;;;;;;;5063199;28;20107;-78
2021/11/18 09:20:43;;;;;;;5.25;0.80;;;;;;;;;;5063471;28;20033;-77
2021/11/18 09:23:09;;;;;;;6.50;0.98;;;;;;;;;;5048739;28;20584;-80
2021/11/18 09:25:41;;;;;;;6.95;1.00;;;;;;;;;;5067061;28;20029;-79
2021/11/18 09:28:09;;;;;;;5.13;1.00;;;;;;;;;;5066725;28;20035;-80
2021/11/18 09:30:42;;;;;;;3.78;0.85;;;;;;;;;;5067258;28;20033;-78
2021/11/18 09:33:11;;;;;;;4.97;1.02;;;;;;;;;;5066932;28;20035;-76
2021/11/18 09:35:39;;;;;;;6.28;1.48;;;;;;;;;;5048845;28;20097;-77
2021/11/18 09:38:09;;;;;;;7.80;0.80;;;;;;;;;;5066833;28;20043;-76
2021/11/18 09:40:48;;;;;;;6.22;1.90;;;;;;;;;;5066038;28;20473;-73
2021/11/18 09:43:35;;;;;;;5.72;0.90;;;;;;;;;;5066304;28;20029;-80
2021/11/18 09:46:46;;;;;;;3.60;0.93;;;;;;;;;;5066574;28;20033;-78
2021/11/18 09:49:33;;;;;;;6.32;0.80;;;;;;;;;;5028865;28;20043;-78
2021/11/18 09:52:40;;;;;;;3.88;0.80;;;;;;;;;;5066535;28;20021;-75
2021/11/18 09:55:16;;;;;;;3.47;0.55;;;;;;;;;;5066396;28;20087;-78
2021/11/18 09:58:37;;;;;;;6.05;0.88;;;;;;;;;;5065828;28;20051;-77
2021/11/18 10:01:15;;;;;;;5.03;0.88;;;;;;;;;;5017360;28;20056;-78
2021/11/18 10:03:58;;;;;;;3.30;0.90;;;;;;;;;;5048273;28;20041;-80
2021/11/18 10:06:28;;;;;;;5.03;1.55;;;;;;;;;;5048360;28;20033;-80
2021/11/18 10:09:10;;;;;;;6.07;1.50;;;;;;;;;;5066024;28;20029;-74
2021/11/18 10:11:50;;;;;;;8.98;1.13;;;;;;;;;;5048176;28;20033;-77
2021/11/18 10:14:59;;;;;;;3.90;0.73;;;;;;;;;;5066079;28;20029;-74
2021/11/18 10:17:46;;;;;;;4.78;0.90;;;;;;;;;;5065604;28;20402;-79
2021/11/18 10:20:33;;;;;;;6.65;1.08;;;;;;;;;;5064371;28;20017;-75
2021/11/18 10:23:09;;;;;;;6.30;0.73;;;;;;;;;;5047579;28;20041;-75
2021/11/18 11:25:46;;;;;;;2.85;0.68;;;;;;;;;;5246584;22;20293;-74
2021/11/18 11:28:42;;;;;;;3.10;0.60;;;;;;;;;;5035763;28;20530;-74
2021/11/18 11:31:34;;;;;;;6.85;0.70;;;;;;;;;;5055620;28;20036;-74
2021/11/18 11:34:18;;;;;;;5.35;0.65;;;;;;;;;;5055426;28;20036;-73
2021/11/18 11:37:07;;;;;;;3.78;0.90;;;;;;;;;;5060101;28;20036;-74
2021/11/18 11:39:45;;;;;;;4.65;1.08;;;;;;;;;;5053193;28;20044;-73
2021/11/18 11:42:36;;;;;;;7.10;0.70;;;;;;;;;;5060088;28;20090;-74
2021/11/18 11:45:01;;;;;;;1.23;0.55;;;;;;;;;;5052680;28;20025;-73
2021/11/18 11:47:56;;;;;;;7.28;1.10;;;;;;;;;;5036501;28;20021;-74
2021/11/18 11:50:59;;;;;;;4.35;0.57;;;;;;;;;;5048283;28;20575;-73
2021/11/18 11:53:47;;;;;;;2.97;0.80;;;;;;;;;;5056032;28;20044;-73
2021/11/18 11:56:33;;;;;;;4.10;0.73;;;;;;;;;;5056825;28;20013;-72
2021/11/18 11:59:34;;;;;;;3.83;0.70;;;;;;;;;;5046226;28;20041;-72
2021/11/18 12:02:18;;;;;;;4.00;0.88;;;;;;;;;;5064045;28;20308;-72
2021/11/18 12:04:51;;;;;;;7.43;1.05;;;;;;;;;;5060257;28;20040;-75
2021/11/18 12:07:26;;;;;;;5.18;0.80;;;;;;;;;;5063988;28;20532;-74
2021/11/18 12:10:43;;;;;;;2.22;0.57;;;;;;;;;;5043745;28;20037;-74
2021/11/18 12:13:50;;;;;;;3.88;0.93;;;;;;;;;;4976535;28;20026;-74
2021/11/18 12:16:28;;;;;;;3.65;0.70;;;;;;;;;;4965462;28;20057;-71
2021/11/18 12:19:25;;;;;;;2.20;0.52;;;;;;;;;;5040957;28;20043;-73
2021/11/18 12:21:53;;;;;;;3.65;0.60;;;;;;;;;;5063334;28;20101;-72
2021/11/18 12:24:24;;;;;;;1.90;0.60;;;;;;;;;;5064173;28;20497;-73
2021/11/18 12:27:21;;;;;;;2.17;0.40;;;;;;;;;;5063711;28;20110;-73
2021/11/18 12:30:12;;;;;;;6.65;0.88;;;;;;;;;;5063830;28;20032;-72
2021/11/18 12:32:39;;;;;;;6.63;0.85;;;;;;;;;;5044726;28;20025;-75
2021/11/18 12:35:10;;;;;;;4.47;0.68;;;;;;;;;;5063625;28;20047;-74
2021/11/18 12:38:06;;;;;;;4.47;0.60;;;;;;;;;;5063659;28;20057;-73
2021/11/18 12:41:09;;;;;;;4.57;0.70;;;;;;;;;;5062710;28;20048;-74
2021/11/18 12:43:50;;;;;;;1.92;0.60;;;;;;;;;;5062787;28;20056;-74
2021/11/18 12:47:11;;;;;;;2.70;0.57;;;;;;;;;;5045763;28;20029;-74
2021/11/18 12:49:55;;;;;;;3.33;0.60;;;;;;;;;;5045921;28;20064;-75
2021/11/18 12:52:30;;;;;;;3.40;0.45;;;;;;;;;;5063616;28;20036;-77
2021/11/18 12:55:20;;;;;;;1.10;0.50;;;;;;;;;;5045620;28;20059;-72
2021/11/18 12:58:14;;;;;;;6.25;0.80;;;;;;;;;;5045341;28;20093;-75
2021/11/18 13:00:49;;;;;;;;;;;;;;;;;;5063740;28;20090;-75
2021/11/18 13:03:36;;;;;;;1.38;0.50;;;;;;;;;;5063810;28;19908;-73
2021/11/18 13:06:04;;;;;;;4.32;0.90;;;;;;;;;;5044612;28;20389;-73
2021/11/18 13:08:51;;;;;;;5.47;0.65;;;;;;;;;;5044378;28;20053;-74
2021/11/18 13:11:57;;;;;;;5.03;0.65;;;;;;;;;;5063386;28;20028;-75
2021/11/18 13:14:48;;;;;;;4.85;0.73;;;;;;;;;;5042502;28;20033;-75
2021/11/18 13:17:20;;;;;;;3.78;0.80;;;;;;;;;;5052246;28;20045;-74
2021/11/18 13:19:50;;;;;;;5.65;0.50;;;;;;;;;;5063270;28;20086;-76
2021/11/18 13:22:41;;;;;;;3.85;0.65;;;;;;;;;;5044950;28;20092;-75
2021/11/18 13:25:12;;;;;;;8.05;1.40;;;;;;;;;;5063141;28;20063;-75
2021/11/18 13:28:14;;;;;;;4.38;0.52;;;;;;;;;;5063215;28;20053;-74
2021/11/18 13:30:51;;;;;;;5.22;0.90;;;;;;;;;;5044161;28;20025;-74
2021/11/18 13:33:19;;;;;;;1.98;0.40;;;;;;;;;;5063198;28;20029;-77
2021/11/18 13:35:56;;;;;;;2.20;0.88;;;;;;;;;;5044946;28;20056;-76
2021/11/18 13:38:24;;;;;;;4.25;0.73;;;;;;;;;;5045937;28;20025;-75
2021/11/18 13:40:58;;;;;;;5.18;0.70;;;;;;;;;;5064119;28;20472;-76
2021/11/18 13:43:27;;;;;;;;;;;;;;;;;;5064491;28;20080;-77
2021/11/18 13:46:06;;;;;;;4.82;0.70;;;;;;;;;;5063930;28;19908;-76
2021/11/18 13:49:16;;;;;;;2.13;0.75;;;;;;;;;;5046225;28;20032;-77
2021/11/18 13:51:53;;;;;;;8.30;1.40;;;;;;;;;;5045727;28;20040;-76
2021/11/18 13:54:24;;;;;;;5.28;0.70;;;;;;;;;;5045793;28;20144;-78
2021/11/18 13:57:05;;;;;;;1.90;0.30;;;;;;;;;;5063821;28;20056;-77
2021/11/18 13:59:50;;;;;;;3.55;0.73;;;;;;;;;;5064090;28;20100;-77
2021/11/18 14:02:24;;;;;;;4.10;0.70;;;;;;;;;;5063356;28;20051;-76
2021/11/18 14:05:01;;;;;;;3.33;0.40;;;;;;;;;;5045594;28;20115;-77
2021/11/18 14:07:30;;;;;;;4.82;0.73;;;;;;;;;;5063879;28;20029;-76
2021/11/18 14:10:01;;;;;;;5.55;0.60;;;;;;;;;;5048972;28;20032;-78
2021/11/18 14:12:50;;;;;;;2.88;0.68;;;;;;;;;;5049216;28;20029;-75
2021/11/18 14:15:35;;;;;;;4.30;0.60;;;;;;;;;;5067309;28;20032;-74
2021/11/18 14:18:06;;;;;;;1.45;0.63;;;;;;;;;;5066436;28;20025;-75
2021/11/18 14:20:35;;;;;;;3.40;0.80;;;;;;;;;;5067051;28;20056;-75
2021/11/18 14:23:20;;;;;;;8.77;0.80;;;;;;;;;;5066856;28;20587;-74
2021/11/18 14:26:05;;;;;;;6.85;1.08;;;;;;;;;;5066675;28;20072;-76
2021/11/18 14:28:44;;;;;;;4.47;0.77;;;;;;;;;;5048810;28;20101;-74
2021/11/18 14:31:54;;;;;;;4.68;0.90;;;;;;;;;;5066647;28;20413;-76
2021/11/18 14:34:23;;;;;;;9.77;1.00;;;;;;;;;;5048629;28;20055;-75
2021/11/18 14:37:13;;;;;;;4.93;0.98;;;;;;;;;;5066488;28;20049;-75
2021/11/18 14:39:39;;;;;;;2.83;0.68;;;;;;;;;;5025286;28;20033;-75
2021/11/18 14:42:20;;;;;;;4.38;0.60;;;;;;;;;;5066084;28;20035;-73
2021/11/18 14:45:07;;;;;;;5.43;0.75;;;;;;;;;;5066445;28;20059;-74
2021/11/18 14:47:36;;;;;;;5.13;0.80;;;;;;;;;;5066456;28;20089;-73
2021/11/18 14:50:10;;;;;;;4.18;0.70;;;;;;;;;;5048098;28;20040;-74
2021/11/18 14:52:52;;;;;;;4.85;0.57;;;;;;;;;;5066274;28;20449;-75
2021/11/18 14:55:37;;;;;;;4.57;0.70;;;;;;;;;;5066217;28;20484;-76
2021/11/18 14:58:05;;;;;;;2.35;0.60;;;;;;;;;;5066261;28;20025;-75
2021/11/18 15:00:44;;;;;;;4.70;0.82;;;;;;;;;;5066233;28;20089;-75
2021/11/18 15:03:14;;;;;;;4.55;0.77;;;;;;;;;;5047699;28;20029;-75
2021/11/18 15:05:40;;;;;;;6.75;0.85;;;;;;;;;;5048196;28;20033;-75
2021/11/18 15:08:06;;;;;;;3.55;0.75;;;;;;;;;;5066144;28;20033;-76
2021/11/18 15:10:32;;;;;;;5.40;0.93;;;;;;;;;;5048307;28;20112;-75
2021/11/18 15:12:57;;;;;;;5.72;1.30;;;;;;;;;;5065880;28;20096;-75
2021/11/18 15:15:26;;;;;;;6.38;0.85;;;;;;;;;;5065973;28;20029;-75
2021/11/18 15:17:56;;;;;;;6.65;1.10;;;;;;;;;;5047902;28;20021;-75
2021/11/18 15:20:27;;;;;;;7.53;0.90;;;;;;;;;;5065707;28;20025;-75
2021/11/18 15:22:55;;;;;;;4.90;0.95;;;;;;;;;;5065990;28;20124;-75
2021/11/18 15:25:23;;;;;;;4.82;0.95;;;;;;;;;;5065610;28;20032;-75
2021/11/18 15:27:49;;;;;;;6.82;1.20;;;;;;;;;;5065681;28;20033;-75
2021/11/18 15:30:19;;;;;;;5.75;1.50;;;;;;;;;;5065893;28;20029;-74
2021/11/18 15:32:45;;;;;;;8.23;0.80;;;;;;;;;;5066191;28;20032;-76
2021/11/18 15:35:21;;;;;;;3.22;0.73;;;;;;;;;;5065495;28;20405;-75
2021/11/18 15:37:48;;;;;;;6.35;0.75;;;;;;;;;;5065612;28;20029;-75
2021/11/18 15:40:15;;;;;;;8.82;1.40;;;;;;;;;;5047526;28;20063;-76
2021/11/18 15:42:41;;;;;;;7.25;1.00;;;;;;;;;;5065630;28;20353;-74
2021/11/18 15:45:10;;;;;;;3.10;0.73;;;;;;;;;;5065259;28;20048;-75
2021/11/18 15:47:36;;;;;;;4.90;0.85;;;;;;;;;;5065484;28;20071;-75
2021/11/18 15:50:04;;;;;;;6.50;1.27;;;;;;;;;;5065320;28;20040;-75
2021/11/18 15:52:33;;;;;;;5.32;1.42;;;;;;;;;;5065127;28;20036;-75
2021/11/18 15:54:59;;;;;;;5.75;0.98;;;;;;;;;;5065115;28;20094;-75
2021/11/18 15:57:25;;;;;;;6.45;1.15;;;;;;;;;;5046985;28;20071;-75
2021/11/18 15:59:51;;;;;;;3.65;1.02;;;;;;;;;;5065150;28;20087;-74
2021/11/18 16:02:19;;;;;;;7.40;1.10;;;;;;;;;;5046657;28;20428;-75
2021/11/18 16:04:47;;;;;;;3.58;0.77;;;;;;;;;;5064801;28;20112;-75
2021/11/18 16:07:16;;;;;;;6.63;1.52;;;;;;;;;;5046938;28;20029;-74
2021/11/18 16:09:44;;;;;;;10.82;1.58;;;;;;;;;;5065094;28;20025;-75